Time;durP1;ratioP1;P1;durP2;ratioP2;P2;SDS_P1;SDS_P2;PMS_P1;PMS_P2;Temp;Humidity;BMP_temperature;BMP_pressure;BME280_temperature;BME280_humidity;BME280_pressure;Samples;Min_cycle;Max_cycle;Signal;HPM_P1;HPM_P2
2022/01/24 00:01:41;;;;;;;7.15;4.43;;;2.30;99.90;;;;;;4967734;28;20199;-85
2022/01/24 00:04:08;;;;;;;9.43;4.35;;;2.30;99.90;;;;;;4964167;28;20176;-83
2022/01/24 00:06:34;;;;;;;9.25;5.30;;;2.20;99.90;;;;;;4967088;28;20211;-82
2022/01/24 00:09:01;;;;;;;8.65;5.38;;;2.30;99.90;;;;;;4973698;28;20252;-83
2022/01/24 00:11:38;;;;;;;9.35;5.10;;;2.30;99.90;;;;;;4954755;28;20203;-86
2022/01/24 00:14:47;;;;;;;9.55;6.00;;;2.20;99.90;;;;;;4956045;28;20199;-84
2022/01/24 00:27:40;;;;;;;7.30;4.63;;;1.90;99.90;;;;;;4959372;28;20221;-85
2022/01/24 00:30:06;;;;;;;9.27;5.53;;;2.00;99.90;;;;;;4962795;28;20188;-85
2022/01/24 00:32:31;;;;;;;7.43;5.55;;;2.00;99.90;;;;;;4956514;28;20268;-82
2022/01/24 00:34:57;;;;;;;7.83;5.07;;;1.90;99.90;;;;;;4961052;28;20638;-85
2022/01/24 00:37:23;;;;;;;7.73;4.47;;;;;;;;;;4960854;28;20769;-85
2022/01/24 00:39:49;;;;;;;8.95;6.60;;;1.90;99.90;;;;;;4954895;28;20198;-82
2022/01/24 00:42:27;;;;;;;9.10;5.43;;;;;;;;;;4956107;28;20204;-83
2022/01/24 00:47:25;;;;;;;9.77;5.70;;;;;;;;;;4959015;28;20215;-83
2022/01/24 00:55:20;;;;;;;13.32;6.78;;;1.70;99.90;;;;;;4962590;28;20194;-83
2022/01/24 00:57:45;;;;;;;7.80;5.20;;;1.50;99.90;;;;;;4956133;28;20204;-86
2022/01/24 01:00:11;;;;;;;10.00;5.40;;;1.50;99.90;;;;;;4960369;28;20253;-82
2022/01/24 01:02:38;;;;;;;8.00;5.18;;;1.40;99.90;;;;;;4958832;28;20179;-85
2022/01/24 01:07:40;;;;;;;7.40;5.78;;;1.40;99.90;;;;;;4952245;28;20215;-84
2022/01/24 01:18:21;;;;;;;7.80;4.70;;;0.90;99.90;;;;;;4959974;28;20279;-87
2022/01/24 01:21:07;;;;;;;9.18;4.72;;;0.60;99.90;;;;;;4961821;28;20218;-84
2022/01/24 01:23:37;;;;;;;8.63;5.43;;;0.40;99.90;;;;;;4967438;28;20192;-85
2022/01/24 01:26:08;;;;;;;6.82;5.18;;;0.40;99.90;;;;;;4964828;28;20225;-82
2022/01/24 01:28:35;;;;;;;10.88;5.75;;;0.40;99.90;;;;;;4977057;28;20184;-86
2022/01/24 01:31:06;;;;;;;9.07;5.63;;;0.40;99.90;;;;;;4964014;28;20204;-84
2022/01/24 01:38:39;;;;;;;14.33;6.80;;;;;;;;;;4962468;28;20184;-85
2022/01/24 01:57:32;;;;;;;9.02;5.63;;;0.40;99.90;;;;;;4963428;28;20208;-84
2022/01/24 01:59:58;;;;;;;9.90;6.40;;;;;;;;;;4964147;28;20191;-85
2022/01/24 02:02:23;;;;;;;9.60;5.93;;;0.50;99.90;;;;;;4959942;28;21169;-84
2022/01/24 02:04:49;;;;;;;11.10;5.77;;;0.50;99.90;;;;;;4954803;28;20562;-85
2022/01/24 02:07:17;;;;;;;13.10;6.43;;;0.60;99.90;;;;;;4957660;28;20243;-84
2022/01/24 02:09:45;;;;;;;9.07;6.38;;;0.60;99.90;;;;;;4959624;28;20184;-85
2022/01/24 02:12:12;;;;;;;11.32;6.65;;;0.50;99.90;;;;;;4966984;28;20192;-85
2022/01/24 02:14:45;;;;;;;12.25;6.43;;;0.60;99.90;;;;;;4967634;28;20180;-85
2022/01/24 02:17:16;;;;;;;9.63;6.13;;;0.60;99.90;;;;;;4965788;28;20216;-85
2022/01/24 02:20:03;;;;;;;14.52;7.00;;;0.60;99.90;;;;;;4961236;28;20180;-85
2022/01/24 02:22:40;;;;;;;12.77;6.50;;;0.60;99.90;;;;;;4967133;28;20271;-85
2022/01/24 02:25:16;;;;;;;10.45;6.90;;;;;;;;;;4963448;28;20776;-85
2022/01/24 02:27:46;;;;;;;13.43;5.65;;;0.30;99.90;;;;;;4963403;28;20280;-85
2022/01/24 02:30:25;;;;;;;7.20;5.13;;;0.30;99.90;;;;;;4965308;28;20195;-85
2022/01/24 02:32:51;;;;;;;9.27;5.60;;;0.00;99.90;;;;;;4963116;28;20179;-83
2022/01/24 02:35:16;;;;;;;11.30;5.60;;;;;;;;;;4963126;28;20769;-84
2022/01/24 02:37:42;;;;;;;7.83;5.47;;;0.00;99.90;;;;;;4963772;28;20238;-85
2022/01/24 02:40:15;;;;;;;9.97;6.30;;;0.00;99.90;;;;;;4960982;28;21729;-84
2022/01/24 02:48:26;;;;;;;11.13;6.90;;;0.10;99.90;;;;;;4984898;28;20222;-86
2022/01/24 02:53:37;;;;;;;17.02;5.75;;;0.30;99.90;;;;;;4968534;28;20180;-86
2022/01/24 02:56:04;;;;;;;9.65;5.60;;;0.20;99.90;;;;;;4963739;28;20226;-84
2022/01/24 02:58:30;;;;;;;8.70;5.05;;;0.10;99.90;;;;;;4966673;28;20188;-85
2022/01/24 03:00:56;;;;;;;8.07;4.65;;;0.00;99.90;;;;;;4967202;28;20191;-84
2022/01/24 03:03:22;;;;;;;8.83;5.13;;;-0.20;99.90;;;;;;4955030;28;20199;-84
2022/01/24 03:05:48;;;;;;;9.30;5.70;;;;;;;;;;4964061;28;20952;-84
2022/01/24 03:08:14;;;;;;;10.43;5.75;;;;;;;;;;4960886;28;20215;-84
2022/01/24 03:10:46;;;;;;;10.60;5.75;;;0.10;99.90;;;;;;4967390;28;20188;-85
2022/01/24 03:15:40;;;;;;;9.15;5.43;;;0.30;99.90;;;;;;4967250;28;20707;-84
2022/01/24 03:18:06;;;;;;;12.10;6.90;;;0.30;99.90;;;;;;4959310;28;20630;-84
2022/01/24 03:20:33;;;;;;;10.80;6.88;;;0.40;99.90;;;;;;4961052;28;20256;-85
2022/01/24 03:22:59;;;;;;;12.45;6.60;;;0.30;99.90;;;;;;4964811;28;20192;-82
2022/01/24 03:25:24;;;;;;;9.73;6.47;;;0.30;99.90;;;;;;4969284;28;20190;-84
2022/01/24 03:27:50;;;;;;;12.80;6.87;;;;;;;;;;4964217;28;20529;-83
2022/01/24 03:30:16;;;;;;;11.40;6.70;;;0.40;99.90;;;;;;4961495;28;20188;-84
2022/01/24 03:32:41;;;;;;;10.93;6.80;;;0.40;99.90;;;;;;4961009;28;20500;-85
2022/01/24 03:35:07;;;;;;;11.80;7.00;;;0.50;99.90;;;;;;4965948;28;20183;-84
2022/01/24 03:37:36;;;;;;;8.73;5.55;;;0.50;99.90;;;;;;4960155;28;20208;-83
2022/01/24 03:40:03;;;;;;;15.05;6.53;;;0.40;99.90;;;;;;4966711;28;20192;-84
2022/01/24 03:42:29;;;;;;;13.70;7.68;;;0.30;99.90;;;;;;4958669;28;20289;-84
2022/01/24 03:44:58;;;;;;;9.80;6.83;;;0.20;99.90;;;;;;4954196;28;20175;-83
2022/01/24 03:47:43;;;;;;;11.52;7.20;;;0.10;99.90;;;;;;4961443;28;20272;-85
2022/01/24 03:50:17;;;;;;;14.00;7.15;;;0.00;99.90;;;;;;4964348;28;20646;-84
2022/01/24 03:52:45;;;;;;;8.30;6.10;;;0.00;99.90;;;;;;4962131;28;21150;-84
2022/01/24 03:55:11;;;;;;;12.15;7.60;;;0.00;99.90;;;;;;4965024;28;20603;-84
2022/01/24 03:57:38;;;;;;;9.20;6.35;;;0.10;99.90;;;;;;4960187;28;20212;-83
2022/01/24 04:00:07;;;;;;;12.07;7.80;;;0.10;99.90;;;;;;4962142;28;20206;-84
2022/01/24 04:02:32;;;;;;;11.60;6.93;;;0.20;99.90;;;;;;4959829;28;20192;-84
2022/01/24 04:04:58;;;;;;;7.07;5.33;;;0.20;99.90;;;;;;4980371;28;20175;-83
2022/01/24 04:07:24;;;;;;;8.90;6.50;;;;;;;;;;4984896;28;20223;-84
2022/01/24 04:09:50;;;;;;;15.90;7.60;;;0.20;99.90;;;;;;4971373;28;20211;-84
2022/01/24 04:12:16;;;;;;;9.45;6.15;;;0.00;99.90;;;;;;4964978;28;20457;-83
2022/01/24 04:22:17;;;;;;;14.00;7.75;;;0.00;99.90;;;;;;4966418;28;20190;-85
2022/01/24 04:24:45;;;;;;;10.95;6.55;;;0.20;99.90;;;;;;4958882;28;20187;-83
2022/01/24 04:27:13;;;;;;;9.85;6.85;;;0.10;99.90;;;;;;4958692;28;20286;-84
2022/01/24 04:29:39;;;;;;;12.40;6.63;;;0.10;99.90;;;;;;4958757;28;20184;-84
2022/01/24 04:32:05;;;;;;;12.05;7.72;;;0.10;99.90;;;;;;4959466;28;20184;-82
2022/01/24 04:34:31;;;;;;;12.47;6.93;;;;;;;;;;4960253;28;20183;-84
2022/01/24 04:36:56;;;;;;;8.50;4.43;;;-0.10;99.90;;;;;;4953243;28;20215;-83
2022/01/24 04:39:23;;;;;;;8.80;5.33;;;;;;;;;;4962545;28;20450;-84
2022/01/24 04:41:49;;;;;;;9.35;5.40;;;-0.60;99.90;;;;;;4952262;28;20193;-83
2022/01/24 04:44:45;;;;;;;12.25;7.40;;;;;;;;;;4956873;28;20187;-83
2022/01/24 04:47:24;;;;;;;12.07;7.20;;;-0.60;99.90;;;;;;4962330;28;20219;-82
2022/01/24 04:52:51;;;;;;;12.43;7.85;;;-0.50;99.90;;;;;;4957691;28;21092;-84
2022/01/24 04:55:17;;;;;;;11.73;6.95;;;-0.40;99.90;;;;;;4966016;28;20187;-83
2022/01/24 04:57:42;;;;;;;10.83;6.00;;;-0.30;99.90;;;;;;4954612;28;20238;-83
2022/01/24 05:00:10;;;;;;;12.47;7.40;;;-0.20;99.90;;;;;;4966344;28;20196;-84
2022/01/24 05:02:36;;;;;;;9.57;5.95;;;-0.30;99.90;;;;;;4965833;28;20211;-84
2022/01/24 05:05:02;;;;;;;14.07;7.33;;;-0.50;99.90;;;;;;4970101;28;20215;-83
2022/01/24 05:07:28;;;;;;;12.82;6.57;;;-0.50;99.90;;;;;;4974326;28;20215;-85
2022/01/24 05:23:29;;;;;;;16.30;9.02;;;-0.10;99.90;;;;;;4965181;28;20714;-85
2022/01/24 05:25:57;;;;;;;12.50;7.85;;;0.10;99.90;;;;;;4972897;28;20187;-82
2022/01/24 05:28:23;;;;;;;11.63;8.35;;;;;;;;;;4981236;28;20220;-85
2022/01/24 05:30:49;;;;;;;13.50;8.07;;;;;;;;;;4967896;28;20176;-85
2022/01/24 05:33:16;;;;;;;15.25;8.73;;;;;;;;;;4970253;28;20184;-85
2022/01/24 05:35:42;;;;;;;15.10;9.05;;;;;;;;;;4970460;28;20298;-84
2022/01/24 05:38:07;;;;;;;12.23;8.50;;;0.30;99.90;;;;;;4968547;28;20835;-84
2022/01/24 05:40:34;;;;;;;13.40;9.23;;;;;;;;;;4961006;28;21646;-85
2022/01/24 05:42:59;;;;;;;8.05;6.40;;;0.30;99.90;;;;;;4973850;28;20227;-83
2022/01/24 05:45:25;;;;;;;13.47;8.30;;;;;;;;;;4966229;28;20216;-85
2022/01/24 05:47:51;;;;;;;16.25;9.05;;;0.50;99.90;;;;;;4962454;28;20212;-85
2022/01/24 05:50:17;;;;;;;16.30;9.70;;;;;;;;;;4959187;28;20191;-84
2022/01/24 05:52:43;;;;;;;14.25;9.35;;;;;;;;;;4954170;28;20210;-85
2022/01/24 05:55:09;;;;;;;15.97;9.83;;;;;;;;;;4958946;28;21009;-83
2022/01/24 05:57:36;;;;;;;17.77;10.82;;;0.60;99.90;;;;;;4952530;28;20458;-85
2022/01/24 06:00:04;;;;;;;15.65;9.02;;;0.60;99.90;;;;;;4956414;28;20214;-83
2022/01/24 06:02:29;;;;;;;13.73;8.93;;;0.60;99.90;;;;;;4963941;28;20883;-85
2022/01/24 06:04:55;;;;;;;13.83;8.07;;;0.70;99.90;;;;;;4950551;28;20184;-84
2022/01/24 06:07:23;;;;;;;16.50;9.50;;;0.70;99.90;;;;;;4979547;28;20203;-84
2022/01/24 06:09:48;;;;;;;13.25;8.82;;;0.70;99.90;;;;;;4980371;28;20181;-85
2022/01/24 06:12:14;;;;;;;21.60;10.30;;;0.70;99.90;;;;;;4971067;28;20196;-84
2022/01/24 06:14:39;;;;;;;15.63;8.53;;;0.70;99.90;;;;;;4970262;28;20214;-85
2022/01/24 06:17:05;;;;;;;12.70;8.37;;;;;;;;;;4964801;28;20269;-85
2022/01/24 06:19:31;;;;;;;18.60;10.85;;;0.70;99.90;;;;;;4965115;28;20267;-83
2022/01/24 06:21:59;;;;;;;15.80;9.57;;;0.70;99.90;;;;;;4956948;28;21503;-84
2022/01/24 06:24:24;;;;;;;12.80;8.23;;;0.70;99.90;;;;;;4950486;28;20243;-84
2022/01/24 06:26:50;;;;;;;17.97;7.63;;;;;;;;;;4951044;28;20216;-85
2022/01/24 06:29:17;;;;;;;13.50;7.23;;;0.80;99.90;;;;;;4955170;28;20180;-84
2022/01/24 06:31:47;;;;;;;19.13;7.63;;;0.80;99.90;;;;;;4957656;28;20504;-84
2022/01/24 06:34:13;;;;;;;16.58;9.75;;;0.80;99.90;;;;;;4961841;28;20176;-83
2022/01/24 06:36:39;;;;;;;10.27;8.60;;;0.90;99.90;;;;;;4965689;28;21504;-83
2022/01/24 06:39:06;;;;;;;14.37;8.70;;;0.90;99.90;;;;;;4966717;28;20188;-84
2022/01/24 06:41:34;;;;;;;14.82;9.23;;;-0.30;99.90;;;;;;4954716;28;20266;-82
2022/01/24 06:44:01;;;;;;;14.73;7.80;;;0.90;99.90;;;;;;4961637;28;20192;-85
2022/01/24 06:46:26;;;;;;;16.98;10.32;;;0.90;99.90;;;;;;4976668;28;20294;-83
2022/01/24 06:48:52;;;;;;;18.87;12.30;;;;;;;;;;4976494;28;20222;-84
2022/01/24 06:51:18;;;;;;;14.90;10.20;;;0.90;99.90;;;;;;4964861;28;20723;-83
2022/01/24 06:53:46;;;;;;;19.67;10.50;;;0.90;99.90;;;;;;4968669;28;21114;-84
2022/01/24 06:56:12;;;;;;;21.52;11.60;;;1.00;99.90;;;;;;4968285;28;20230;-84
2022/01/24 06:58:38;;;;;;;24.80;12.40;;;;;;;;;;4955482;28;20180;-84
2022/01/24 07:01:04;;;;;;;25.50;12.23;;;1.00;99.90;;;;;;4962142;28;20211;-83
2022/01/24 07:03:29;;;;;;;20.30;11.53;;;;;;;;;;4971793;28;20462;-84
2022/01/24 07:05:55;;;;;;;17.60;9.88;;;1.30;99.90;;;;;;4965810;28;20188;-84
2022/01/24 07:08:21;;;;;;;18.90;10.47;;;;;;;;;;4961872;28;20203;-85
2022/01/24 07:10:47;;;;;;;25.38;13.57;;;1.30;99.90;;;;;;4961049;28;20247;-84
2022/01/24 07:13:13;;;;;;;22.07;12.27;;;1.40;99.90;;;;;;4975904;28;20219;-85
2022/01/24 07:15:47;;;;;;;25.80;13.10;;;;;;;;;;4967603;28;20442;-85
2022/01/24 07:20:38;;;;;;;21.90;12.98;;;1.70;99.90;;;;;;4964472;28;20210;-85
2022/01/24 07:23:05;;;;;;;15.90;10.73;;;1.70;99.90;;;;;;4964083;28;20722;-85
2022/01/24 07:25:31;;;;;;;30.17;16.13;;;1.80;99.90;;;;;;4968199;28;20183;-84
2022/01/24 07:27:57;;;;;;;22.37;15.47;;;;;;;;;;4964823;28;20222;-84
2022/01/24 07:30:23;;;;;;;27.60;17.45;;;1.90;99.90;;;;;;4970027;28;20180;-85
2022/01/24 07:32:49;;;;;;;21.60;12.23;;;1.90;99.90;;;;;;4966779;28;20206;-84
2022/01/24 07:35:14;;;;;;;14.27;9.13;;;2.00;99.90;;;;;;4966036;28;20193;-84
2022/01/24 07:37:40;;;;;;;18.30;10.10;;;;;;;;;;4966687;28;20286;-83
2022/01/24 07:40:08;;;;;;;13.80;8.97;;;2.10;99.90;;;;;;4970412;28;20561;-83
2022/01/24 07:45:20;;;;;;;15.05;10.23;;;2.20;99.90;;;;;;4969883;28;20201;-84
2022/01/24 07:47:47;;;;;;;15.00;9.75;;;2.30;99.90;;;;;;4968084;28;20276;-83
2022/01/24 07:50:14;;;;;;;19.60;9.52;;;2.30;99.90;;;;;;4965299;28;20595;-84
2022/01/24 07:52:40;;;;;;;19.83;9.35;;;2.40;99.90;;;;;;4981632;28;20218;-83
2022/01/24 07:55:06;;;;;;;9.73;8.67;;;2.50;99.90;;;;;;4964048;28;20760;-84
2022/01/24 07:57:31;;;;;;;14.60;9.32;;;2.60;99.90;;;;;;4962310;28;21203;-83
2022/01/24 07:59:57;;;;;;;17.33;10.27;;;2.60;99.90;;;;;;4966454;28;20188;-84
2022/01/24 08:02:23;;;;;;;14.87;9.63;;;2.70;99.90;;;;;;4976504;28;20190;-83
2022/01/24 08:04:48;;;;;;;18.20;9.37;;;2.70;99.90;;;;;;4972554;28;20279;-85
2022/01/24 08:07:14;;;;;;;18.40;12.63;;;;;;;;;;4983132;28;21761;-82
2022/01/24 08:09:40;;;;;;;16.73;9.93;;;2.80;99.90;;;;;;4983612;28;20200;-83
2022/01/24 08:12:06;;;;;;;18.53;10.83;;;2.80;99.90;;;;;;4980983;28;20526;-83
2022/01/24 08:14:32;;;;;;;13.85;10.10;;;2.90;99.90;;;;;;4964755;28;20180;-85
2022/01/24 08:16:59;;;;;;;15.17;10.67;;;;;;;;;;4970815;28;20211;-85
2022/01/24 08:19:25;;;;;;;17.88;10.13;;;3.00;99.90;;;;;;4970223;28;20184;-85
2022/01/24 08:21:51;;;;;;;13.23;7.63;;;;;;;;;;4964680;28;20188;-84
2022/01/24 08:24:17;;;;;;;13.77;8.60;;;;;;;;;;4968290;28;20267;-83
2022/01/24 08:26:42;;;;;;;12.15;7.85;;;3.00;99.90;;;;;;4962371;28;20544;-84
2022/01/24 08:29:08;;;;;;;13.17;9.03;;;;;;;;;;4957999;28;20191;-83
2022/01/24 08:31:36;;;;;;;14.83;10.00;;;3.00;99.90;;;;;;4958396;28;20186;-83
2022/01/24 08:34:01;;;;;;;13.65;8.68;;;3.00;99.90;;;;;;4969720;28;20736;-85
2022/01/24 08:36:28;;;;;;;12.10;8.10;;;;;;;;;;4960526;28;20253;-84
2022/01/24 08:38:57;;;;;;;13.07;7.95;;;3.20;99.90;;;;;;4960295;28;20184;-85
2022/01/24 08:41:28;;;;;;;25.17;9.38;;;3.30;99.90;;;;;;4965288;28;20168;-83
2022/01/24 08:44:10;;;;;;;9.07;7.15;;;3.30;99.90;;;;;;4961156;28;20236;-83
2022/01/24 08:46:36;;;;;;;12.57;7.93;;;3.30;99.90;;;;;;4977056;28;20222;-83
2022/01/24 08:49:02;;;;;;;11.53;8.47;;;;;;;;;;4969201;28;20188;-83
2022/01/24 08:51:28;;;;;;;15.00;10.90;;;3.40;99.90;;;;;;4963187;28;20188;-84
2022/01/24 08:53:53;;;;;;;15.77;10.30;;;3.40;99.90;;;;;;4965523;28;20263;-84
2022/01/24 08:56:19;;;;;;;12.00;9.13;;;;;;;;;;4960507;28;20239;-82
2022/01/24 08:58:45;;;;;;;18.20;10.37;;;3.70;99.90;;;;;;4952925;28;20187;-83
2022/01/24 09:01:10;;;;;;;11.13;7.80;;;3.70;99.90;;;;;;4965415;28;20436;-84
2022/01/24 09:03:39;;;;;;;13.53;8.80;;;;;;;;;;4962589;28;20301;-84
2022/01/24 09:06:06;;;;;;;14.48;8.35;;;3.80;99.90;;;;;;4964427;28;20677;-84
2022/01/24 09:08:31;;;;;;;15.35;9.18;;;3.80;99.90;;;;;;4955038;28;20233;-83
2022/01/24 09:10:58;;;;;;;12.07;7.73;;;;;;;;;;4958245;28;20199;-85
2022/01/24 09:13:23;;;;;;;14.02;8.70;;;4.10;99.90;;;;;;4961581;28;20192;-83
2022/01/24 09:15:49;;;;;;;8.47;7.30;;;4.30;99.90;;;;;;4966313;28;20195;-85
2022/01/24 09:18:16;;;;;;;14.63;9.05;;;4.30;99.90;;;;;;4966783;28;20244;-84
2022/01/24 09:20:41;;;;;;;14.88;8.35;;;5.60;99.90;;;;;;4963924;28;20220;-83
2022/01/24 09:23:09;;;;;;;14.33;8.40;;;4.70;99.90;;;;;;4961600;28;20180;-85
2022/01/24 09:25:35;;;;;;;11.95;7.63;;;5.50;99.90;;;;;;4969899;28;20241;-84
2022/01/24 09:28:01;;;;;;;13.45;8.63;;;6.40;99.90;;;;;;4970431;28;20314;-82
2022/01/24 09:30:27;;;;;;;10.43;7.27;;;;;;;;;;4975851;28;20190;-83
2022/01/24 09:32:53;;;;;;;14.43;7.90;;;8.50;99.90;;;;;;4961762;28;20720;-84
2022/01/24 09:35:20;;;;;;;11.13;7.90;;;;;;;;;;4972042;28;20447;-83
2022/01/24 09:37:47;;;;;;;13.55;8.70;;;6.70;99.90;;;;;;4965907;28;20691;-84
2022/01/24 09:40:15;;;;;;;13.27;9.55;;;6.40;99.90;;;;;;4953445;28;20745;-83
2022/01/24 09:42:42;;;;;;;15.82;9.00;;;6.20;99.90;;;;;;4956488;28;20188;-83
2022/01/24 09:45:09;;;;;;;9.70;7.80;;;6.10;99.90;;;;;;4970510;28;20175;-84
2022/01/24 09:47:35;;;;;;;10.40;7.65;;;;;;;;;;4966652;28;20613;-83
2022/01/24 09:50:01;;;;;;;9.60;8.10;;;6.00;99.90;;;;;;4968386;28;20184;-84
2022/01/24 09:52:28;;;;;;;12.07;9.67;;;6.30;99.90;;;;;;4962690;28;20182;-83
2022/01/24 09:54:54;;;;;;;12.88;8.55;;;6.30;99.90;;;;;;4962607;28;20443;-86
2022/01/24 09:57:20;;;;;;;13.33;8.60;;;;;;;;;;4969924;28;20294;-84
2022/01/24 09:59:46;;;;;;;30.43;12.93;;;6.70;99.90;;;;;;4965074;28;20192;-84
2022/01/24 10:02:11;;;;;;;21.57;12.47;;;6.40;99.90;;;;;;4968707;28;20447;-85
2022/01/24 10:04:37;;;;;;;28.67;16.00;;;7.10;99.90;;;;;;4971910;28;20470;-85
2022/01/24 10:07:17;;;;;;;16.47;10.77;;;6.40;99.90;;;;;;4965439;28;20231;-86
2022/01/24 10:09:54;;;;;;;22.08;11.30;;;6.40;99.90;;;;;;4972146;28;20191;-84
2022/01/24 10:12:34;;;;;;;23.48;11.82;;;6.40;99.90;;;;;;4965896;28;20311;-84
2022/01/24 10:17:48;;;;;;;10.75;6.15;;;6.30;99.90;;;;;;4969050;28;20219;-83
2022/01/24 10:20:23;;;;;;;9.60;6.40;;;6.50;99.90;;;;;;4967126;28;20196;-87
2022/01/24 10:23:12;;;;;;;8.75;6.75;;;6.40;99.90;;;;;;4969830;28;20198;-88
2022/01/24 10:25:45;;;;;;;11.52;6.90;;;6.30;99.90;;;;;;4971913;28;20189;-83
2022/01/24 10:28:10;;;;;;;11.27;6.68;;;6.40;99.90;;;;;;4965455;28;20212;-85
2022/01/24 10:30:36;;;;;;;7.47;5.27;;;;;;;;;;4965995;28;20687;-84
2022/01/24 10:33:04;;;;;;;33.33;25.30;;;6.60;99.90;;;;;;4961683;28;20179;-84
2022/01/24 10:35:35;;;;;;;7.00;5.07;;;6.40;99.90;;;;;;4966602;28;20759;-87
2022/01/24 10:38:23;;;;;;;8.55;4.13;;;;;;;;;;4973964;28;20238;-84
2022/01/24 10:47:45;;;;;;;10.30;5.53;;;6.10;99.90;;;;;;5085332;22;20223;-84
2022/01/24 10:50:28;;;;;;;5.60;4.85;;;6.10;99.90;;;;;;5009806;28;20202;-85
2022/01/24 10:53:09;;;;;;;6.13;5.50;;;6.30;99.90;;;;;;5006015;28;20205;-86
2022/01/24 10:55:35;;;;;;;11.93;6.85;;;;;;;;;;5020111;28;20201;-84
2022/01/24 10:58:09;;;;;;;9.40;6.38;;;6.50;99.90;;;;;;5015363;28;20198;-84
2022/01/24 11:00:37;;;;;;;6.90;6.15;;;6.60;99.90;;;;;;5005263;28;20204;-83
2022/01/24 11:03:03;;;;;;;14.05;7.72;;;;;;;;;;5009142;28;20175;-84
2022/01/24 11:05:34;;;;;;;10.90;6.35;;;6.80;99.90;;;;;;5005168;28;20190;-83
2022/01/24 11:08:10;;;;;;;8.02;4.72;;;6.70;99.90;;;;;;5001264;28;20229;-84
2022/01/24 11:10:45;;;;;;;9.75;5.38;;;6.80;99.90;;;;;;5010025;28;20178;-85
2022/01/24 11:13:12;;;;;;;6.32;5.05;;;6.90;99.90;;;;;;4999027;28;20178;-84
2022/01/24 11:15:42;;;;;;;8.07;5.50;;;7.00;99.90;;;;;;5006195;28;20179;-84
2022/01/24 11:18:09;;;;;;;6.25;5.32;;;7.00;99.90;;;;;;5002713;28;20189;-84
2022/01/24 11:20:40;;;;;;;5.38;4.32;;;6.90;99.90;;;;;;5011734;28;20179;-83
2022/01/24 11:23:07;;;;;;;6.25;4.07;;;6.90;99.90;;;;;;4997248;28;20194;-85
2022/01/24 11:25:42;;;;;;;8.75;5.70;;;;;;;;;;5005818;28;20215;-84
2022/01/24 11:28:09;;;;;;;7.38;4.38;;;6.80;99.90;;;;;;5018804;28;20529;-83
2022/01/24 11:30:44;;;;;;;12.82;4.40;;;7.20;99.90;;;;;;5006459;28;20186;-84
2022/01/24 11:33:13;;;;;;;5.85;3.97;;;7.60;99.90;;;;;;5022138;28;20708;-84
2022/01/24 11:35:45;;;;;;;5.85;4.57;;;7.60;99.90;;;;;;5010260;28;20690;-82
2022/01/24 11:38:37;;;;;;;7.00;5.22;;;7.80;99.90;;;;;;5003437;28;20658;-85
2022/01/24 11:41:33;;;;;;;9.57;4.93;;;8.00;99.90;;;;;;5000384;28;20216;-84
2022/01/24 11:44:08;;;;;;;5.45;4.60;;;8.30;99.90;;;;;;5007593;28;20254;-83
2022/01/24 11:46:49;;;;;;;5.82;5.28;;;8.40;99.90;;;;;;5009118;28;21131;-84
2022/01/24 11:49:16;;;;;;;8.30;5.45;;;8.40;99.90;;;;;;5009367;28;20209;-82
2022/01/24 11:51:45;;;;;;;9.48;5.07;;;8.40;99.90;;;;;;5002984;28;20186;-83
2022/01/24 11:54:44;;;;;;;10.90;4.90;;;8.30;99.90;;;;;;4996997;28;20182;-84
2022/01/24 11:57:24;;;;;;;16.17;7.18;;;8.20;99.90;;;;;;4985679;28;20522;-83
2022/01/24 12:00:11;;;;;;;6.50;4.60;;;7.80;99.90;;;;;;5003069;28;20210;-85
2022/01/24 12:02:37;;;;;;;4.60;3.85;;;;;;;;;;5003460;28;20187;-83
2022/01/24 12:05:33;;;;;;;14.53;4.40;;;7.20;99.90;;;;;;5004775;28;20246;-84
2022/01/24 12:08:05;;;;;;;6.07;5.43;;;7.40;99.90;;;;;;5023064;28;20480;-83
2022/01/24 12:10:40;;;;;;;14.45;5.28;;;;;;;;;;5026113;28;20449;-82
2022/01/24 12:13:14;;;;;;;4.43;3.55;;;7.60;99.90;;;;;;5001196;28;20186;-82
2022/01/24 12:15:43;;;;;;;8.48;4.22;;;7.60;99.90;;;;;;5013874;28;20194;-84
2022/01/24 12:18:10;;;;;;;6.63;3.70;;;7.60;99.90;;;;;;5011519;28;20187;-84
2022/01/24 12:20:36;;;;;;;8.43;3.85;;;;;;;;;;5007763;28;20190;-85
2022/01/24 12:23:20;;;;;;;10.23;4.00;;;7.70;99.90;;;;;;5008092;28;20181;-81
2022/01/24 12:25:58;;;;;;;9.00;4.15;;;7.60;99.90;;;;;;4999112;28;20523;-84
2022/01/24 12:28:25;;;;;;;4.15;3.58;;;7.50;99.90;;;;;;5001081;28;20210;-82
2022/01/24 12:31:28;;;;;;;5.72;5.28;;;7.50;99.90;;;;;;5002021;28;20183;-82
2022/01/24 12:33:54;;;;;;;5.32;3.80;;;;;;;;;;4997271;28;20961;-83
2022/01/24 12:36:38;;;;;;;6.73;4.60;;;7.80;99.90;;;;;;5004898;28;20229;-85
2022/01/24 12:39:19;;;;;;;5.88;3.80;;;7.80;99.90;;;;;;5005484;28;20501;-82
2022/01/24 12:41:51;;;;;;;5.40;4.32;;;7.80;99.90;;;;;;5008878;28;20181;-84
2022/01/24 12:47:08;;;;;;;9.20;5.55;;;7.90;99.90;;;;;;5009392;28;20214;-84
2022/01/24 12:49:34;;;;;;;8.63;5.28;;;7.90;99.90;;;;;;5008168;28;20197;-83
2022/01/24 12:52:06;;;;;;;6.50;4.17;;;7.70;99.90;;;;;;5008685;28;20560;-85
2022/01/24 12:54:35;;;;;;;6.60;4.65;;;7.80;99.90;;;;;;5007242;28;20202;-84
2022/01/24 12:57:05;;;;;;;6.65;4.45;;;7.90;99.90;;;;;;5005218;28;20684;-83
2022/01/24 12:59:31;;;;;;;7.18;4.82;;;7.90;99.90;;;;;;5018653;28;20217;-84
2022/01/24 13:02:00;;;;;;;6.80;4.30;;;;;;;;;;5002698;28;21020;-83
2022/01/24 13:04:39;;;;;;;7.53;4.47;;;8.10;99.90;;;;;;5024331;28;20488;-85
2022/01/24 13:07:07;;;;;;;6.38;4.40;;;8.20;99.90;;;;;;5003364;28;20274;-85
2022/01/24 13:09:34;;;;;;;9.82;5.60;;;8.20;99.90;;;;;;5008760;28;20666;-85
2022/01/24 13:12:04;;;;;;;6.53;3.92;;;8.30;99.90;;;;;;5001967;28;20190;-84
2022/01/24 13:14:52;;;;;;;10.55;5.18;;;8.20;99.90;;;;;;4998903;28;20170;-83
2022/01/24 13:22:58;;;;;;;4.00;3.67;;;7.80;99.90;;;;;;5006937;28;20234;-85
2022/01/24 13:25:29;;;;;;;4.55;3.90;;;7.80;99.90;;;;;;5007628;28;20178;-83
2022/01/24 13:28:06;;;;;;;6.25;4.20;;;7.70;99.90;;;;;;4988693;28;20211;-82
2022/01/24 13:30:35;;;;;;;4.05;3.50;;;7.40;99.90;;;;;;5029777;28;20308;-82
2022/01/24 13:33:06;;;;;;;3.75;3.38;;;7.50;99.90;;;;;;5019979;28;20197;-83
2022/01/24 13:35:37;;;;;;;5.88;4.10;;;7.50;99.90;;;;;;5009203;28;20227;-83
2022/01/24 13:38:09;;;;;;;4.28;3.70;;;7.50;99.90;;;;;;5009557;28;20210;-85
2022/01/24 13:40:40;;;;;;;6.25;3.40;;;7.50;99.90;;;;;;5009403;28;20190;-84
2022/01/24 13:43:08;;;;;;;3.15;2.67;;;7.60;99.90;;;;;;5002774;28;20265;-84
2022/01/24 13:45:39;;;;;;;5.78;3.53;;;7.50;99.90;;;;;;5004051;28;20178;-82
2022/01/24 13:48:14;;;;;;;9.68;4.05;;;7.60;99.90;;;;;;4991352;28;20271;-83
2022/01/24 13:50:48;;;;;;;6.53;3.78;;;7.60;99.90;;;;;;4998663;28;20277;-85
2022/01/24 13:53:29;;;;;;;5.97;4.65;;;7.60;99.90;;;;;;5011487;28;20183;-82
2022/01/24 13:55:55;;;;;;;5.35;3.72;;;;;;;;;;5011828;28;20186;-85
2022/01/24 13:58:25;;;;;;;5.80;4.30;;;7.80;99.90;;;;;;5002939;28;20283;-83
2022/01/24 14:01:00;;;;;;;8.90;4.25;;;7.80;99.90;;;;;;5017631;28;20452;-85
2022/01/24 14:03:27;;;;;;;6.40;4.18;;;7.70;99.90;;;;;;5021875;28;20197;-84
2022/01/24 14:06:15;;;;;;;5.75;4.20;;;7.70;99.90;;;;;;5008636;28;20253;-84
2022/01/24 14:08:42;;;;;;;7.72;3.55;;;7.60;99.90;;;;;;5003344;28;20326;-81
2022/01/24 14:11:14;;;;;;;5.43;3.67;;;7.60;99.90;;;;;;5000646;28;20187;-84
2022/01/24 14:13:40;;;;;;;5.15;4.13;;;7.40;99.90;;;;;;5003230;28;20206;-82
2022/01/24 14:16:12;;;;;;;6.72;2.88;;;7.20;99.90;;;;;;5009224;28;20198;-83
2022/01/24 14:18:38;;;;;;;3.50;3.20;;;7.20;99.90;;;;;;5016528;28;20205;-81
2022/01/24 14:21:13;;;;;;;8.10;3.80;;;7.10;99.90;;;;;;5025596;28;20281;-84
2022/01/24 14:23:39;;;;;;;7.07;3.90;;;7.10;99.90;;;;;;5011302;28;20186;-83
2022/01/24 14:26:23;;;;;;;6.53;3.42;;;7.10;99.90;;;;;;5012485;28;20207;-84
2022/01/24 14:29:13;;;;;;;6.50;3.28;;;7.00;99.90;;;;;;5009319;28;20202;-83
2022/01/24 14:31:40;;;;;;;7.68;4.15;;;7.00;99.90;;;;;;5012409;28;20182;-84
2022/01/24 14:34:07;;;;;;;3.50;3.20;;;7.00;99.90;;;;;;5004999;28;20186;-84
2022/01/24 14:36:33;;;;;;;5.57;3.45;;;;;;;;;;5004943;28;20211;-83
2022/01/24 14:39:01;;;;;;;24.20;15.05;;;6.90;99.90;;;;;;5008586;28;20189;-84
2022/01/24 14:41:34;;;;;;;20.50;14.70;;;6.80;99.90;;;;;;5002321;28;20213;-83
2022/01/24 14:46:46;;;;;;;14.00;9.00;;;6.70;99.90;;;;;;5008203;28;20260;-83
2022/01/24 14:49:27;;;;;;;5.53;3.80;;;6.70;99.90;;;;;;5005774;28;20185;-82
2022/01/24 14:51:55;;;;;;;8.95;5.07;;;6.60;99.90;;;;;;5006570;28;20190;-81
2022/01/24 14:54:26;;;;;;;6.07;4.38;;;6.60;99.90;;;;;;5023276;28;20182;-82
2022/01/24 14:56:54;;;;;;;6.90;4.65;;;6.50;99.90;;;;;;5007701;28;20247;-82
2022/01/24 14:59:21;;;;;;;5.78;4.03;;;6.50;99.90;;;;;;5008935;28;20216;-84
2022/01/24 15:01:47;;;;;;;4.93;3.33;;;6.40;99.90;;;;;;5006797;28;20191;-83
2022/01/24 15:04:13;;;;;;;8.30;4.10;;;;;;;;;;5007642;28;20216;-82
2022/01/24 15:06:39;;;;;;;7.10;5.50;;;6.20;99.90;;;;;;5002632;28;20214;-85
2022/01/24 15:09:17;;;;;;;9.82;4.95;;;6.20;99.90;;;;;;5002389;28;20473;-82
2022/01/24 15:11:45;;;;;;;6.65;3.85;;;6.10;99.90;;;;;;4999946;28;20198;-83